Time;durP1;ratioP1;P1;durP2;ratioP2;P2;SDS_P1;SDS_P2;PMS_P1;PMS_P2;Temp;Humidity;BMP_temperature;BMP_pressure;BME280_temperature;BME280_humidity;BME280_pressure;Samples;Min_cycle;Max_cycle;Signal;HPM_P1;HPM_P2
2023/12/20 00:02:23;;;;;;;6.87;4.70;;;;;;;;;;5035525;28;20172;-78
2023/12/20 00:04:49;;;;;;;8.60;4.97;;;;;;;;;;5039832;28;20211;-80
2023/12/20 00:07:16;;;;;;;6.00;4.93;;;;;;;;;;5049962;28;20181;-77
2023/12/20 00:09:42;;;;;;;5.77;5.10;;;;;;;;;;5035552;28;20221;-79
2023/12/20 00:12:08;;;;;;;7.73;5.03;;;;;;;;;;5035320;28;20186;-79
2023/12/20 00:14:34;;;;;;;14.33;6.37;;;;;;;;;;5036857;28;20184;-76
2023/12/20 00:17:00;;;;;;;9.33;6.03;;;;;;;;;;5057584;28;20284;-78
2023/12/20 00:19:26;;;;;;;11.80;7.17;;;;;;;;;;5043192;28;20168;-77
2023/12/20 00:21:52;;;;;;;8.57;6.57;;;;;;;;;;5035798;28;20624;-78
2023/12/20 00:24:19;;;;;;;12.83;6.90;;;;;;;;;;5034738;28;20200;-79
2023/12/20 00:26:45;;;;;;;11.77;8.20;;;;;;;;;;5034442;28;20168;-78
2023/12/20 00:29:11;;;;;;;14.37;8.90;;;;;;;;;;5050565;28;20181;-78
2023/12/20 00:31:37;;;;;;;16.20;9.40;;;;;;;;;;5035436;28;20176;-79
2023/12/20 00:34:03;;;;;;;14.43;9.90;;;;;;;;;;5064519;28;20223;-79
2023/12/20 00:36:29;;;;;;;13.13;9.23;;;;;;;;;;5036491;28;20185;-78
2023/12/20 00:38:55;;;;;;;14.03;9.37;;;;;;;;;;5034303;28;20169;-77
2023/12/20 00:41:21;;;;;;;17.57;11.27;;;;;;;;;;5035948;28;20176;-77
2023/12/20 00:43:48;;;;;;;18.73;12.13;;;;;;;;;;5035489;28;20175;-77
2023/12/20 00:46:14;;;;;;;18.60;11.07;;;;;;;;;;5016887;28;20190;-79
2023/12/20 00:48:42;;;;;;;18.10;11.37;;;;;;;;;;5016335;28;20208;-80
2023/12/20 00:51:08;;;;;;;17.53;11.63;;;;;;;;;;5035672;28;20187;-77
2023/12/20 00:53:34;;;;;;;20.17;11.97;;;;;;;;;;5046167;28;20353;-76
2023/12/20 00:56:00;;;;;;;20.23;12.97;;;;;;;;;;5049835;28;20168;-80
2023/12/20 00:58:27;;;;;;;21.33;13.37;;;;;;;;;;5051321;28;20271;-77
2023/12/20 01:00:54;;;;;;;17.70;12.33;;;;;;;;;;5046561;28;20175;-77
2023/12/20 01:03:20;;;;;;;24.53;13.40;;;;;;;;;;5029456;28;20251;-77
2023/12/20 01:05:46;;;;;;;22.00;13.33;;;;;;;;;;5042298;28;20213;-78
2023/12/20 01:08:12;;;;;;;24.17;13.70;;;;;;;;;;5017196;28;20184;-79
2023/12/20 01:10:39;;;;;;;21.30;12.70;;;;;;;;;;5036332;28;20212;-78
2023/12/20 01:13:05;;;;;;;23.30;13.20;;;;;;;;;;5035615;28;20175;-78
2023/12/20 01:15:31;;;;;;;20.93;12.63;;;;;;;;;;5034898;28;20239;-78
2023/12/20 01:17:59;;;;;;;23.13;12.23;;;;;;;;;;5034277;28;20192;-77
2023/12/20 01:20:25;;;;;;;20.97;12.53;;;;;;;;;;5034184;28;20171;-79
2023/12/20 01:22:51;;;;;;;20.60;11.73;;;;;;;;;;5038038;28;20179;-76
2023/12/20 01:25:17;;;;;;;17.30;11.50;;;;;;;;;;5044895;28;20562;-78
2023/12/20 01:27:44;;;;;;;22.30;12.10;;;;;;;;;;5037028;28;20229;-80
2023/12/20 01:30:10;;;;;;;21.63;11.67;;;;;;;;;;5035775;28;20215;-79
2023/12/20 01:32:36;;;;;;;18.90;10.47;;;;;;;;;;5033209;28;20189;-77
2023/12/20 01:35:02;;;;;;;15.57;9.90;;;;;;;;;;5023342;28;20718;-78
2023/12/20 01:37:29;;;;;;;16.77;10.20;;;;;;;;;;5052748;28;20913;-79
2023/12/20 01:39:55;;;;;;;15.07;9.97;;;;;;;;;;5053149;28;20680;-79
2023/12/20 01:42:22;;;;;;;17.93;11.27;;;;;;;;;;5053185;28;20348;-79
2023/12/20 01:44:49;;;;;;;15.97;10.30;;;;;;;;;;5053125;28;20569;-78
2023/12/20 01:47:15;;;;;;;14.70;9.43;;;;;;;;;;5054351;28;20183;-79
2023/12/20 01:49:42;;;;;;;16.20;9.87;;;;;;;;;;5053546;28;20546;-76
2023/12/20 01:52:08;;;;;;;17.20;10.00;;;;;;;;;;5063930;28;20292;-80
2023/12/20 01:54:35;;;;;;;18.73;10.40;;;;;;;;;;5052757;28;20209;-79
2023/12/20 01:57:03;;;;;;;15.87;10.23;;;;;;;;;;5054253;28;20212;-78
2023/12/20 01:59:29;;;;;;;14.47;9.93;;;;;;;;;;5063608;28;20222;-78
2023/12/20 02:01:55;;;;;;;15.87;10.57;;;;;;;;;;5072529;28;20239;-79
2023/12/20 02:04:21;;;;;;;20.10;10.90;;;;;;;;;;5075472;28;20208;-77
2023/12/20 02:06:48;;;;;;;16.97;9.70;;;;;;;;;;5078508;28;20169;-79
2023/12/20 02:09:15;;;;;;;7.97;6.20;;;;;;;;;;5074481;28;20167;-77
2023/12/20 02:11:42;;;;;;;10.67;6.60;;;;;;;;;;5076186;28;20234;-77
2023/12/20 02:14:08;;;;;;;10.10;6.27;;;;;;;;;;5085930;28;20186;-78
2023/12/20 02:16:34;;;;;;;9.67;7.37;;;;;;;;;;5075745;28;20277;-78
2023/12/20 02:19:00;;;;;;;8.37;6.07;;;;;;;;;;5073838;28;20536;-81
2023/12/20 02:21:33;;;;;;;5.53;4.77;;;;;;;;;;5073225;28;20227;-80
2023/12/20 02:23:59;;;;;;;5.43;4.60;;;;;;;;;;5073867;28;20233;-79
2023/12/20 02:26:25;;;;;;;8.10;5.20;;;;;;;;;;5072047;28;20191;-79
2023/12/20 02:28:52;;;;;;;6.80;4.83;;;;;;;;;;5074533;28;20209;-78
2023/12/20 02:31:21;;;;;;;7.47;4.77;;;;;;;;;;5071069;28;20174;-79
2023/12/20 02:33:47;;;;;;;9.47;5.20;;;;;;;;;;5075793;28;20228;-80
2023/12/20 02:36:13;;;;;;;6.47;5.37;;;;;;;;;;5071430;28;20179;-78
2023/12/20 02:38:39;;;;;;;6.73;5.00;;;;;;;;;;5072906;28;20175;-78
2023/12/20 02:41:05;;;;;;;5.07;4.43;;;;;;;;;;5076476;28;20174;-77
2023/12/20 02:43:31;;;;;;;5.07;4.40;;;;;;;;;;5082538;28;20518;-77
2023/12/20 02:45:58;;;;;;;6.17;4.87;;;;;;;;;;5077512;28;20210;-78
2023/12/20 02:48:24;;;;;;;6.87;4.33;;;;;;;;;;5076930;28;20168;-78
2023/12/20 02:50:50;;;;;;;5.63;4.67;;;;;;;;;;5076155;28;20252;-77
2023/12/20 02:53:16;;;;;;;6.30;4.70;;;;;;;;;;5076833;28;20185;-78
2023/12/20 02:55:42;;;;;;;6.17;5.00;;;;;;;;;;5086547;28;20265;-78
2023/12/20 02:58:08;;;;;;;4.97;4.47;;;;;;;;;;5078030;28;20301;-77
2023/12/20 03:00:34;;;;;;;5.10;4.50;;;;;;;;;;5059174;28;20178;-78
2023/12/20 03:03:01;;;;;;;6.47;4.60;;;;;;;;;;5061027;28;20184;-79
2023/12/20 03:05:28;;;;;;;7.43;4.70;;;;;;;;;;5038791;28;20210;-78
2023/12/20 03:07:54;;;;;;;6.97;4.97;;;;;;;;;;5057402;28;20207;-76
2023/12/20 03:10:20;;;;;;;8.00;4.90;;;;;;;;;;5069248;28;20248;-79
2023/12/20 03:12:46;;;;;;;8.03;5.43;;;;;;;;;;5055995;28;20293;-79
2023/12/20 03:15:12;;;;;;;11.47;5.37;;;;;;;;;;5054970;28;20191;-78
2023/12/20 03:17:38;;;;;;;10.90;5.90;;;;;;;;;;5057236;28;20198;-80
2023/12/20 03:20:04;;;;;;;7.73;5.07;;;;;;;;;;5056253;28;20301;-79
2023/12/20 03:22:30;;;;;;;10.27;5.40;;;;;;;;;;5056873;28;20520;-80
2023/12/20 03:24:57;;;;;;;9.40;5.43;;;;;;;;;;5055958;28;20219;-78
2023/12/20 03:27:23;;;;;;;7.30;5.20;;;;;;;;;;5057851;28;20179;-78
2023/12/20 03:29:50;;;;;;;5.57;4.87;;;;;;;;;;5055832;28;20178;-77
2023/12/20 03:32:16;;;;;;;6.97;5.50;;;;;;;;;;5055895;28;20585;-79
2023/12/20 03:34:42;;;;;;;9.10;5.50;;;;;;;;;;5057108;28;20193;-78
2023/12/20 03:37:08;;;;;;;7.13;5.77;;;;;;;;;;5055722;28;20175;-79
2023/12/20 03:39:34;;;;;;;10.07;5.73;;;;;;;;;;5055113;28;20607;-77
2023/12/20 03:42:01;;;;;;;8.93;5.90;;;;;;;;;;5056681;28;20589;-78
2023/12/20 03:44:27;;;;;;;8.73;6.20;;;;;;;;;;5058910;28;20195;-78
2023/12/20 03:46:53;;;;;;;10.43;6.90;;;;;;;;;;5062534;28;20183;-77
2023/12/20 03:49:19;;;;;;;11.87;7.00;;;;;;;;;;5058047;28;20210;-79
2023/12/20 03:51:45;;;;;;;13.63;8.07;;;;;;;;;;5054738;28;20182;-78
2023/12/20 03:54:11;;;;;;;11.87;7.63;;;;;;;;;;5075199;28;20175;-76
2023/12/20 03:56:37;;;;;;;14.40;8.40;;;;;;;;;;5061354;28;20193;-78
2023/12/20 03:59:03;;;;;;;13.07;8.33;;;;;;;;;;5078936;28;20232;-80
2023/12/20 04:01:29;;;;;;;14.40;8.27;;;;;;;;;;5095813;28;20518;-79
2023/12/20 04:03:55;;;;;;;9.90;7.37;;;;;;;;;;5094660;28;20170;-79
2023/12/20 04:06:21;;;;;;;11.77;7.90;;;;;;;;;;5077186;28;20184;-80
2023/12/20 04:08:48;;;;;;;12.33;8.17;;;;;;;;;;5095691;28;20168;-80
2023/12/20 04:11:14;;;;;;;10.70;8.00;;;;;;;;;;5094996;28;20196;-80
2023/12/20 04:13:40;;;;;;;15.90;8.27;;;;;;;;;;5096103;28;20172;-78
2023/12/20 04:16:06;;;;;;;11.67;8.63;;;;;;;;;;5075812;28;20692;-78
2023/12/20 04:18:32;;;;;;;15.47;9.17;;;;;;;;;;5094651;28;20182;-76
2023/12/20 04:20:58;;;;;;;17.77;9.37;;;;;;;;;;5106758;28;20188;-79
2023/12/20 04:23:24;;;;;;;16.63;10.20;;;;;;;;;;5083495;28;20184;-78
2023/12/20 04:25:51;;;;;;;15.17;9.53;;;;;;;;;;5098606;28;20214;-78
2023/12/20 04:28:17;;;;;;;16.93;10.07;;;;;;;;;;5105106;28;20634;-78
2023/12/20 04:30:43;;;;;;;15.83;10.67;;;;;;;;;;5083806;28;20533;-79
2023/12/20 04:33:09;;;;;;;17.20;10.30;;;;;;;;;;5095355;28;20639;-78
2023/12/20 04:35:35;;;;;;;16.57;10.97;;;;;;;;;;5094349;28;20181;-78
2023/12/20 04:38:01;;;;;;;21.60;12.23;;;;;;;;;;5076039;28;20177;-78
2023/12/20 04:40:27;;;;;;;20.33;12.23;;;;;;;;;;5102925;28;20177;-76
2023/12/20 04:42:53;;;;;;;19.47;11.77;;;;;;;;;;5098622;28;20180;-78
2023/12/20 04:45:20;;;;;;;19.27;12.17;;;;;;;;;;5094523;28;20297;-76
2023/12/20 04:47:46;;;;;;;18.50;11.90;;;;;;;;;;5093852;28;20205;-79
2023/12/20 04:50:13;;;;;;;23.73;13.97;;;;;;;;;;5059467;28;20273;-79
2023/12/20 04:52:39;;;;;;;18.70;12.77;;;;;;;;;;5076147;28;20269;-79
2023/12/20 04:55:06;;;;;;;19.47;11.80;;;;;;;;;;5096572;28;20184;-77
2023/12/20 04:57:32;;;;;;;21.47;12.73;;;;;;;;;;5082976;28;20176;-79
2023/12/20 04:59:58;;;;;;;20.27;11.70;;;;;;;;;;5095799;28;20307;-80
2023/12/20 05:02:24;;;;;;;22.77;12.90;;;;;;;;;;5094957;28;20173;-79
2023/12/20 05:04:50;;;;;;;22.90;11.90;;;;;;;;;;5093798;28;20235;-78
2023/12/20 05:07:16;;;;;;;18.73;11.90;;;;;;;;;;5094949;28;20231;-78
2023/12/20 05:09:42;;;;;;;19.97;12.30;;;;;;;;;;5091655;28;20222;-78
2023/12/20 05:12:08;;;;;;;17.27;12.13;;;;;;;;;;5071080;28;20538;-77
2023/12/20 05:14:34;;;;;;;17.20;10.70;;;;;;;;;;5058511;28;20200;-80
2023/12/20 05:17:01;;;;;;;19.57;11.53;;;;;;;;;;5073200;28;20578;-79
2023/12/20 05:19:27;;;;;;;19.07;10.57;;;;;;;;;;5062545;28;20174;-78
2023/12/20 05:21:53;;;;;;;16.93;10.80;;;;;;;;;;5054003;28;20515;-77
2023/12/20 05:24:19;;;;;;;19.73;11.47;;;;;;;;;;5053722;28;20210;-77
2023/12/20 05:26:46;;;;;;;21.37;12.07;;;;;;;;;;5054470;28;20197;-79
2023/12/20 05:29:12;;;;;;;16.57;11.00;;;;;;;;;;5080500;28;20217;-77
2023/12/20 05:31:38;;;;;;;18.53;10.53;;;;;;;;;;5090455;28;20256;-78
2023/12/20 05:34:04;;;;;;;16.63;11.03;;;;;;;;;;5081623;28;20174;-78
2023/12/20 05:36:30;;;;;;;15.30;10.10;;;;;;;;;;5079613;28;20185;-78
2023/12/20 05:38:56;;;;;;;14.77;9.90;;;;;;;;;;5066527;28;20212;-78
2023/12/20 05:41:22;;;;;;;11.93;7.63;;;;;;;;;;5053958;28;20181;-77
2023/12/20 05:43:49;;;;;;;9.27;6.27;;;;;;;;;;5088890;28;20178;-77
2023/12/20 05:46:15;;;;;;;7.47;5.70;;;;;;;;;;5097732;28;20295;-77
2023/12/20 05:48:41;;;;;;;5.50;4.97;;;;;;;;;;5098667;28;20612;-77
2023/12/20 05:51:07;;;;;;;5.87;4.50;;;;;;;;;;5081496;28;20175;-79
2023/12/20 05:53:34;;;;;;;6.43;4.40;;;;;;;;;;5078044;28;20578;-78
2023/12/20 05:56:00;;;;;;;7.07;4.40;;;;;;;;;;5081675;28;20265;-80
2023/12/20 05:58:26;;;;;;;6.33;4.27;;;;;;;;;;5091676;28;20355;-79
2023/12/20 06:00:52;;;;;;;5.23;4.30;;;;;;;;;;5076527;28;20192;-77
2023/12/20 06:03:18;;;;;;;4.70;4.13;;;;;;;;;;5082166;28;20268;-79
2023/12/20 06:05:44;;;;;;;4.53;3.93;;;;;;;;;;5086148;28;20209;-79
2023/12/20 06:08:10;;;;;;;9.10;4.97;;;;;;;;;;5080903;28;20637;-80
2023/12/20 06:10:36;;;;;;;6.23;4.63;;;;;;;;;;5084433;28;20187;-78
2023/12/20 06:13:04;;;;;;;6.67;4.83;;;;;;;;;;5084399;28;20174;-79
2023/12/20 06:15:30;;;;;;;6.37;4.73;;;;;;;;;;5073629;28;20217;-78
2023/12/20 06:17:56;;;;;;;6.50;4.70;;;;;;;;;;5071106;28;20538;-80
2023/12/20 06:20:22;;;;;;;4.97;3.70;;;;;;;;;;5072379;28;20193;-78
2023/12/20 06:22:48;;;;;;;7.40;4.47;;;;;;;;;;5070772;28;20204;-79
2023/12/20 06:25:17;;;;;;;8.53;4.27;;;;;;;;;;5074641;28;20673;-79
2023/12/20 06:27:43;;;;;;;4.80;3.77;;;;;;;;;;5076183;28;20193;-80
2023/12/20 06:30:09;;;;;;;5.40;3.97;;;;;;;;;;5076021;28;20182;-77
2023/12/20 06:32:35;;;;;;;5.00;4.13;;;;;;;;;;5076152;28;20178;-79
2023/12/20 06:35:02;;;;;;;4.73;3.90;;;;;;;;;;5076782;28;20458;-80
2023/12/20 06:37:28;;;;;;;5.43;4.00;;;;;;;;;;5078068;28;20252;-79
2023/12/20 06:39:54;;;;;;;8.13;4.40;;;;;;;;;;5075657;28;20270;-81
2023/12/20 06:42:20;;;;;;;7.07;4.70;;;;;;;;;;5076121;28;20186;-79
2023/12/20 06:44:46;;;;;;;6.27;4.53;;;;;;;;;;5074428;28;20250;-78
2023/12/20 06:47:14;;;;;;;5.20;4.13;;;;;;;;;;5076241;28;20531;-79
2023/12/20 06:49:41;;;;;;;3.97;3.57;;;;;;;;;;5076028;28;20300;-80
2023/12/20 06:52:07;;;;;;;6.03;4.57;;;;;;;;;;5092787;28;20186;-79
2023/12/20 06:54:34;;;;;;;5.93;5.00;;;;;;;;;;5096720;28;20182;-77
2023/12/20 06:57:02;;;;;;;6.07;4.43;;;;;;;;;;5098688;28;20170;-77
2023/12/20 06:59:28;;;;;;;4.77;4.20;;;;;;;;;;5089791;28;20234;-78
2023/12/20 07:01:54;;;;;;;5.27;4.27;;;;;;;;;;5084427;28;20182;-78
2023/12/20 07:04:21;;;;;;;4.47;4.07;;;;;;;;;;5082206;28;20216;-77
2023/12/20 07:06:57;;;;;;;8.50;4.27;;;;;;;;;;5081436;28;20175;-81
2023/12/20 07:09:23;;;;;;;4.30;3.87;;;;;;;;;;5049167;28;20163;-77
2023/12/20 07:11:49;;;;;;;3.90;3.53;;;;;;;;;;5062366;28;20180;-79
2023/12/20 07:14:15;;;;;;;8.00;3.90;;;;;;;;;;5061203;28;20178;-79
2023/12/20 07:16:41;;;;;;;4.73;4.17;;;;;;;;;;5056004;28;20758;-78
2023/12/20 07:19:07;;;;;;;5.63;4.03;;;;;;;;;;5054894;28;20222;-78
2023/12/20 07:21:33;;;;;;;5.87;4.37;;;;;;;;;;5055713;28;20183;-77
2023/12/20 07:24:00;;;;;;;4.80;4.00;;;;;;;;;;5059524;28;20180;-79
2023/12/20 07:26:26;;;;;;;6.03;4.60;;;;;;;;;;5030603;28;20679;-77
2023/12/20 07:28:52;;;;;;;6.20;5.00;;;;;;;;;;5036764;28;20180;-77
2023/12/20 07:31:18;;;;;;;12.20;7.20;;;;;;;;;;5066802;28;20793;-78
2023/12/20 07:33:44;;;;;;;12.63;6.93;;;;;;;;;;5061590;28;20236;-78
2023/12/20 07:36:11;;;;;;;14.60;8.23;;;;;;;;;;5051051;28;20603;-79
2023/12/20 07:38:41;;;;;;;13.90;8.90;;;;;;;;;;5035421;28;20165;-77
2023/12/20 07:41:11;;;;;;;14.37;8.27;;;;;;;;;;5017474;28;20164;-77
2023/12/20 07:43:37;;;;;;;16.87;8.47;;;;;;;;;;5051446;28;20188;-76
2023/12/20 07:46:07;;;;;;;18.27;9.53;;;;;;;;;;5042584;28;20576;-79
2023/12/20 07:48:34;;;;;;;19.73;8.87;;;;;;;;;;5035642;28;20215;-80
2023/12/20 07:51:00;;;;;;;17.03;9.40;;;;;;;;;;5035640;28;20668;-79
2023/12/20 07:53:27;;;;;;;18.10;9.40;;;;;;;;;;5042183;28;20539;-78
2023/12/20 07:55:53;;;;;;;17.03;9.77;;;;;;;;;;5043501;28;20532;-79
2023/12/20 07:58:19;;;;;;;14.03;9.07;;;;;;;;;;5045380;28;20223;-78
2023/12/20 08:00:45;;;;;;;17.27;10.03;;;;;;;;;;5028593;28;20544;-80
2023/12/20 08:03:11;;;;;;;11.67;6.90;;;;;;;;;;5054995;28;20591;-81
2023/12/20 08:05:40;;;;;;;9.87;6.77;;;;;;;;;;5054287;28;20200;-80
2023/12/20 08:08:06;;;;;;;22.13;8.67;;;;;;;;;;5054425;28;20196;-79
2023/12/20 08:10:32;;;;;;;15.23;9.53;;;;;;;;;;5054390;28;20179;-78
2023/12/20 08:13:01;;;;;;;21.83;10.70;;;;;;;;;;5054717;28;20174;-80
2023/12/20 08:15:27;;;;;;;19.50;11.90;;;;;;;;;;5055231;28;20181;-80
2023/12/20 08:17:53;;;;;;;48.67;19.97;;;;;;;;;;5054981;28;20610;-80
2023/12/20 08:20:19;;;;;;;56.37;23.60;;;;;;;;;;5055368;28;20173;-77
2023/12/20 08:22:45;;;;;;;48.00;22.17;;;;;;;;;;5057545;28;20183;-80
2023/12/20 08:25:11;;;;;;;39.53;19.57;;;;;;;;;;5056685;28;20211;-79
2023/12/20 08:27:41;;;;;;;37.53;17.23;;;;;;;;;;5055084;28;20632;-78
2023/12/20 08:30:09;;;;;;;27.40;14.90;;;;;;;;;;5054624;28;20188;-79
2023/12/20 08:32:35;;;;;;;29.63;13.70;;;;;;;;;;5054710;28;20172;-78
2023/12/20 08:35:01;;;;;;;30.47;13.70;;;;;;;;;;5054953;28;20176;-79
2023/12/20 08:37:27;;;;;;;25.27;12.83;;;;;;;;;;5057108;28;20302;-78
2023/12/20 08:39:53;;;;;;;28.03;12.73;;;;;;;;;;5057305;28;20685;-79
2023/12/20 08:42:20;;;;;;;25.50;12.33;;;;;;;;;;5054938;28;20526;-79
2023/12/20 08:44:49;;;;;;;20.23;12.37;;;;;;;;;;5055096;28;20612;-79
2023/12/20 08:47:15;;;;;;;21.03;12.93;;;;;;;;;;5054066;28;20182;-78
2023/12/20 08:49:42;;;;;;;24.10;13.47;;;;;;;;;;5054825;28;20229;-78
2023/12/20 08:52:08;;;;;;;21.90;13.80;;;;;;;;;;5057443;28;20235;-77
2023/12/20 08:54:34;;;;;;;21.43;13.10;;;;;;;;;;5054927;28;20202;-78
2023/12/20 08:57:00;;;;;;;23.63;14.00;;;;;;;;;;5057454;28;20256;-78
2023/12/20 08:59:26;;;;;;;21.97;12.20;;;;;;;;;;5054253;28;20227;-76
2023/12/20 09:01:54;;;;;;;27.17;13.77;;;;;;;;;;5038421;28;20187;-77
2023/12/20 09:04:21;;;;;;;27.53;14.13;;;;;;;;;;5056010;28;20168;-80
2023/12/20 09:06:47;;;;;;;24.83;13.60;;;;;;;;;;5054712;28;20181;-81
2023/12/20 09:09:16;;;;;;;20.50;13.03;;;;;;;;;;5054832;28;20701;-80
2023/12/20 09:11:42;;;;;;;22.30;13.00;;;;;;;;;;5054542;28;20176;-78
2023/12/20 09:14:08;;;;;;;22.10;13.00;;;;;;;;;;5054623;28;20175;-80
2023/12/20 09:16:35;;;;;;;19.27;13.50;;;;;;;;;;5054048;28;20703;-79
2023/12/20 09:19:01;;;;;;;20.23;12.50;;;;;;;;;;5053714;28;20178;-79
2023/12/20 09:21:27;;;;;;;20.03;12.97;;;;;;;;;;5053523;28;20200;-81
2023/12/20 09:23:53;;;;;;;22.63;13.10;;;;;;;;;;5053643;28;20226;-78
2023/12/20 09:26:20;;;;;;;20.37;12.80;;;;;;;;;;5053543;28;20214;-79
2023/12/20 09:28:47;;;;;;;26.37;13.27;;;;;;;;;;5053817;28;20168;-79
2023/12/20 09:31:13;;;;;;;25.63;13.40;;;;;;;;;;5053588;28;20204;-77
2023/12/20 09:33:39;;;;;;;28.10;13.13;;;;;;;;;;5053902;28;20176;-78
2023/12/20 09:36:06;;;;;;;26.03;13.20;;;;;;;;;;5057218;28;20174;-75
2023/12/20 09:38:33;;;;;;;22.67;13.83;;;;;;;;;;5069408;28;20213;-80
2023/12/20 09:41:01;;;;;;;18.10;10.93;;;;;;;;;;5045023;28;20203;-79
2023/12/20 09:43:31;;;;;;;16.80;10.97;;;;;;;;;;5039758;28;20258;-78
2023/12/20 09:46:02;;;;;;;16.33;11.00;;;;;;;;;;5054500;28;20210;-78
2023/12/20 09:48:28;;;;;;;19.10;11.50;;;;;;;;;;5054514;28;20520;-79
2023/12/20 09:50:54;;;;;;;19.20;11.53;;;;;;;;;;5036440;28;20575;-79
2023/12/20 09:53:23;;;;;;;15.77;11.23;;;;;;;;;;5053484;28;20675;-78
2023/12/20 09:55:49;;;;;;;18.50;10.73;;;;;;;;;;5053525;28;20218;-78
2023/12/20 09:58:15;;;;;;;14.77;9.50;;;;;;;;;;5053295;28;20276;-80
2023/12/20 10:00:42;;;;;;;12.43;9.40;;;;;;;;;;5055993;28;20175;-77
2023/12/20 10:03:09;;;;;;;14.80;8.83;;;;;;;;;;5056584;28;20577;-80
2023/12/20 10:05:35;;;;;;;11.87;7.90;;;;;;;;;;5056915;28;20708;-78
2023/12/20 10:08:02;;;;;;;13.00;9.20;;;;;;;;;;5057363;28;20179;-78
2023/12/20 10:10:28;;;;;;;11.30;8.63;;;;;;;;;;5057452;28;20217;-78
2023/12/20 10:13:04;;;;;;;12.63;8.50;;;;;;;;;;5063365;28;20199;-76
2023/12/20 10:15:30;;;;;;;10.40;8.30;;;;;;;;;;5061437;28;20180;-79
2023/12/20 10:17:57;;;;;;;12.77;8.77;;;;;;;;;;5058352;28;20177;-78
2023/12/20 10:20:23;;;;;;;19.87;8.67;;;;;;;;;;5040257;28;20528;-77
2023/12/20 10:22:53;;;;;;;14.67;8.23;;;;;;;;;;5048908;28;20172;-78
2023/12/20 10:25:20;;;;;;;14.67;8.27;;;;;;;;;;5064873;28;20259;-79
2023/12/20 10:27:46;;;;;;;11.33;8.47;;;;;;;;;;5061908;28;20223;-77
2023/12/20 10:30:12;;;;;;;16.17;8.30;;;;;;;;;;5041619;28;20185;-78
2023/12/20 10:32:41;;;;;;;9.80;8.30;;;;;;;;;;5058413;28;20174;-78
2023/12/20 10:35:07;;;;;;;13.87;8.40;;;;;;;;;;5058126;28;20174;-77
2023/12/20 10:37:37;;;;;;;11.83;8.30;;;;;;;;;;5040571;28;20213;-79
2023/12/20 10:40:05;;;;;;;13.30;7.83;;;;;;;;;;5057254;28;20636;-80
2023/12/20 10:42:33;;;;;;;15.60;7.93;;;;;;;;;;5038959;28;20192;-78
2023/12/20 10:45:00;;;;;;;15.60;8.00;;;;;;;;;;5062296;28;20274;-79
2023/12/20 10:47:29;;;;;;;10.97;8.57;;;;;;;;;;5056014;28;20200;-78
2023/12/20 10:49:56;;;;;;;12.70;7.83;;;;;;;;;;5064671;28;20183;-79
2023/12/20 10:52:24;;;;;;;11.27;8.20;;;;;;;;;;5029093;28;20186;-77
2023/12/20 10:54:50;;;;;;;12.60;8.20;;;;;;;;;;5056200;28;20317;-78
2023/12/20 10:57:19;;;;;;;18.57;8.83;;;;;;;;;;5066139;28;20186;-78
2023/12/20 10:59:47;;;;;;;18.20;8.37;;;;;;;;;;5062977;28;20282;-78
2023/12/20 11:02:13;;;;;;;12.07;7.90;;;;;;;;;;5058066;28;20674;-77
2023/12/20 11:04:45;;;;;;;15.37;8.20;;;;;;;;;;5066116;28;20257;-77
2023/12/20 11:07:32;;;;;;;12.13;8.20;;;;;;;;;;5062794;28;20583;-78
2023/12/20 11:10:00;;;;;;;17.23;9.00;;;;;;;;;;5057139;28;20179;-76
2023/12/20 11:12:26;;;;;;;15.70;9.03;;;;;;;;;;5056375;28;20173;-80
2023/12/20 11:14:57;;;;;;;17.27;9.03;;;;;;;;;;5057485;28;20536;-77
2023/12/20 11:17:24;;;;;;;15.83;8.83;;;;;;;;;;5056534;28;20172;-80
2023/12/20 11:19:53;;;;;;;15.20;9.27;;;;;;;;;;5056648;28;20172;-78
2023/12/20 11:22:22;;;;;;;18.27;8.57;;;;;;;;;;5048641;28;20207;-79
2023/12/20 11:24:49;;;;;;;18.17;8.90;;;;;;;;;;5066084;28;20229;-78
2023/12/20 11:27:15;;;;;;;15.77;8.77;;;;;;;;;;5038974;28;20185;-78
2023/12/20 11:29:42;;;;;;;22.83;13.70;;;;;;;;;;5056354;28;20181;-78
2023/12/20 11:32:31;;;;;;;17.17;11.40;;;;;;;;;;5061335;28;20214;-76
2023/12/20 11:35:01;;;;;;;22.57;13.83;;;;;;;;;;5061276;28;20197;-78
2023/12/20 11:37:31;;;;;;;20.10;13.23;;;;;;;;;;5038516;28;20516;-78
2023/12/20 11:40:09;;;;;;;18.50;12.83;;;;;;;;;;5060800;28;20183;-77
2023/12/20 11:42:41;;;;;;;16.23;11.70;;;;;;;;;;5063042;28;20629;-78
2023/12/20 11:45:10;;;;;;;15.83;10.70;;;;;;;;;;5064677;28;20282;-76
2023/12/20 11:47:36;;;;;;;16.37;10.47;;;;;;;;;;5059937;28;20185;-77
2023/12/20 11:50:03;;;;;;;16.83;9.73;;;;;;;;;;5056071;28;20182;-76
2023/12/20 11:52:30;;;;;;;12.10;8.23;;;;;;;;;;5063169;28;20194;-78
2023/12/20 11:54:59;;;;;;;10.47;8.03;;;;;;;;;;5058924;28;20184;-78
2023/12/20 11:57:25;;;;;;;14.00;9.23;;;;;;;;;;5057588;28;20196;-79
2023/12/20 11:59:51;;;;;;;13.37;8.33;;;;;;;;;;5056498;28;20781;-79
2023/12/20 12:02:17;;;;;;;13.80;9.00;;;;;;;;;;5055736;28;20649;-78
2023/12/20 12:04:44;;;;;;;17.93;8.40;;;;;;;;;;5055249;28;20210;-76
2023/12/20 12:07:10;;;;;;;12.83;8.43;;;;;;;;;;5057472;28;20190;-79
2023/12/20 12:09:36;;;;;;;11.37;8.87;;;;;;;;;;5063113;28;20222;-79
2023/12/20 12:12:02;;;;;;;16.03;9.30;;;;;;;;;;5061179;28;20279;-80
2023/12/20 12:14:29;;;;;;;13.50;9.13;;;;;;;;;;5057973;28;20599;-79
2023/12/20 12:16:55;;;;;;;14.43;8.37;;;;;;;;;;5070768;28;20180;-75
2023/12/20 12:19:22;;;;;;;14.70;9.23;;;;;;;;;;5061329;28;20179;-78
2023/12/20 12:21:48;;;;;;;10.50;7.97;;;;;;;;;;5055603;28;20193;-78
2023/12/20 12:24:14;;;;;;;13.17;8.57;;;;;;;;;;5054341;28;20172;-79
2023/12/20 12:26:40;;;;;;;18.30;9.33;;;;;;;;;;5055797;28;20211;-80
2023/12/20 12:29:09;;;;;;;14.83;8.73;;;;;;;;;;5055215;28;20178;-80
2023/12/20 12:31:36;;;;;;;17.27;9.40;;;;;;;;;;5055018;28;20257;-77
2023/12/20 12:34:02;;;;;;;14.67;8.63;;;;;;;;;;5037063;28;20214;-78
2023/12/20 12:36:29;;;;;;;13.17;8.07;;;;;;;;;;5055058;28;20187;-80
2023/12/20 12:38:57;;;;;;;16.37;8.77;;;;;;;;;;5055027;28;20174;-80
2023/12/20 12:41:23;;;;;;;19.93;8.80;;;;;;;;;;5055352;28;20178;-78
2023/12/20 12:43:50;;;;;;;15.33;8.30;;;;;;;;;;5055029;28;20206;-80
2023/12/20 12:46:16;;;;;;;17.53;8.80;;;;;;;;;;5054325;28;20630;-76
2023/12/20 12:48:42;;;;;;;12.00;9.50;;;;;;;;;;5054867;28;20190;-77
2023/12/20 12:51:12;;;;;;;17.37;9.70;;;;;;;;;;5038468;28;20189;-76
2023/12/20 12:53:38;;;;;;;14.47;9.60;;;;;;;;;;5055192;28;20279;-78
2023/12/20 12:56:04;;;;;;;13.60;9.17;;;;;;;;;;5054106;28;20175;-80
2023/12/20 12:58:30;;;;;;;21.73;10.53;;;;;;;;;;5054143;28;20570;-79
2023/12/20 13:00:57;;;;;;;12.33;8.37;;;;;;;;;;5054639;28;20637;-77
2023/12/20 13:03:24;;;;;;;13.03;8.47;;;;;;;;;;5039008;28;20237;-78
2023/12/20 13:05:50;;;;;;;13.73;8.47;;;;;;;;;;5078123;28;20232;-77
2023/12/20 13:08:16;;;;;;;19.73;9.63;;;;;;;;;;5070973;28;20222;-79
2023/12/20 13:10:42;;;;;;;17.03;8.67;;;;;;;;;;5054589;28;20277;-77
2023/12/20 13:13:09;;;;;;;17.37;8.63;;;;;;;;;;5054984;28;20195;-77
2023/12/20 13:15:35;;;;;;;14.07;8.30;;;;;;;;;;5053455;28;20175;-78
2023/12/20 13:18:01;;;;;;;13.23;8.33;;;;;;;;;;5054092;28;20194;-78
2023/12/20 13:20:27;;;;;;;14.30;8.03;;;;;;;;;;5053763;28;20191;-79
2023/12/20 13:22:53;;;;;;;15.70;9.37;;;;;;;;;;5043194;28;20184;-76
2023/12/20 13:25:27;;;;;;;13.40;8.63;;;;;;;;;;5059956;28;20228;-77
2023/12/20 13:27:54;;;;;;;16.67;8.87;;;;;;;;;;5040993;28;20206;-77
2023/12/20 13:30:21;;;;;;;16.03;10.03;;;;;;;;;;5037214;28;20204;-76
2023/12/20 13:32:51;;;;;;;13.97;9.73;;;;;;;;;;5055258;28;20211;-76
2023/12/20 13:35:20;;;;;;;20.30;10.53;;;;;;;;;;5056130;28;20174;-77
2023/12/20 13:37:49;;;;;;;18.83;10.03;;;;;;;;;;5043530;28;20541;-78
2023/12/20 13:40:19;;;;;;;17.00;11.37;;;;;;;;;;5056531;28;20171;-77
2023/12/20 13:42:48;;;;;;;24.73;11.83;;;;;;;;;;5037169;28;20549;-77
2023/12/20 13:45:15;;;;;;;22.47;14.60;;;;;;;;;;5053512;28;20705;-77
2023/12/20 13:47:42;;;;;;;26.47;13.67;;;;;;;;;;5053669;28;20184;-77
2023/12/20 13:50:11;;;;;;;25.63;13.83;;;;;;;;;;5052659;28;20745;-76
2023/12/20 13:52:46;;;;;;;22.73;13.00;;;;;;;;;;5053009;28;20182;-77
2023/12/20 13:55:13;;;;;;;18.37;12.00;;;;;;;;;;5052625;28;20171;-77
2023/12/20 13:57:44;;;;;;;19.27;10.60;;;;;;;;;;5047469;28;20669;-78
2023/12/20 14:00:14;;;;;;;16.27;11.13;;;;;;;;;;5072631;28;20209;-77
2023/12/20 14:02:44;;;;;;;20.10;10.67;;;;;;;;;;5070303;28;20244;-76
2023/12/20 14:05:17;;;;;;;18.63;10.30;;;;;;;;;;5066802;28;20219;-77
2023/12/20 14:07:46;;;;;;;20.20;10.37;;;;;;;;;;5058673;28;20278;-76
2023/12/20 14:10:15;;;;;;;17.50;10.90;;;;;;;;;;5053231;28;20187;-77
2023/12/20 14:12:45;;;;;;;21.33;10.87;;;;;;;;;;5053182;28;20183;-78
2023/12/20 14:15:15;;;;;;;22.90;10.97;;;;;;;;;;5053159;28;20175;-76
2023/12/20 14:17:44;;;;;;;22.63;11.27;;;;;;;;;;5053058;28;20496;-79
2023/12/20 14:20:14;;;;;;;13.37;10.23;;;;;;;;;;5052753;28;20185;-76
2023/12/20 14:22:48;;;;;;;15.63;10.33;;;;;;;;;;5056723;28;20206;-78
2023/12/20 14:25:17;;;;;;;25.40;10.70;;;;;;;;;;5071342;28;20210;-75
2023/12/20 14:27:45;;;;;;;18.07;10.60;;;;;;;;;;5067863;28;20629;-76